sensor_id;sensor_type;location;lat;lon;timestamp;temperature;humidity
52731;DHT22;38624;53.242;6.974;2022-07-04T00:00:19;14.10;99.90
52731;DHT22;38624;53.242;6.974;2022-07-04T00:02:46;14.10;99.90
52731;DHT22;38624;53.242;6.974;2022-07-04T00:05:13;14.10;99.90
52731;DHT22;38624;53.242;6.974;2022-07-04T00:07:45;14.10;99.90
52731;DHT22;38624;53.242;6.974;2022-07-04T00:10:16;14.00;99.90
52731;DHT22;38624;53.242;6.974;2022-07-04T00:12:42;14.00;99.90
52731;DHT22;38624;53.242;6.974;2022-07-04T00:15:09;14.00;99.90
52731;DHT22;38624;53.242;6.974;2022-07-04T00:17:35;14.00;99.90
52731;DHT22;38624;53.242;6.974;2022-07-04T00:20:02;14.00;99.90
52731;DHT22;38624;53.242;6.974;2022-07-04T00:22:28;14.00;99.90
52731;DHT22;38624;53.242;6.974;2022-07-04T00:24:53;14.00;99.90
52731;DHT22;38624;53.242;6.974;2022-07-04T00:27:19;14.00;99.90
52731;DHT22;38624;53.242;6.974;2022-07-04T00:29:45;13.90;99.90
52731;DHT22;38624;53.242;6.974;2022-07-04T00:32:10;13.90;99.90
52731;DHT22;38624;53.242;6.974;2022-07-04T00:34:36;13.90;99.90
52731;DHT22;38624;53.242;6.974;2022-07-04T00:37:02;13.90;99.90
52731;DHT22;38624;53.242;6.974;2022-07-04T00:39:28;13.90;99.90
52731;DHT22;38624;53.242;6.974;2022-07-04T00:41:53;13.90;99.90
52731;DHT22;38624;53.242;6.974;2022-07-04T00:44:19;14.00;99.90
52731;DHT22;38624;53.242;6.974;2022-07-04T00:46:46;14.00;99.90
52731;DHT22;38624;53.242;6.974;2022-07-04T00:49:13;14.00;99.90
52731;DHT22;38624;53.242;6.974;2022-07-04T00:51:41;13.90;99.90
52731;DHT22;38624;53.242;6.974;2022-07-04T00:54:08;13.80;99.90
52731;DHT22;38624;53.242;6.974;2022-07-04T00:56:38;13.80;99.90
52731;DHT22;38624;53.242;6.974;2022-07-04T00:59:05;13.80;99.90
52731;DHT22;38624;53.242;6.974;2022-07-04T01:01:32;13.80;99.90
52731;DHT22;38624;53.242;6.974;2022-07-04T01:03:57;13.70;99.90
52731;DHT22;38624;53.242;6.974;2022-07-04T01:06:24;13.70;99.90
52731;DHT22;38624;53.242;6.974;2022-07-04T01:08:50;13.60;99.90
52731;DHT22;38624;53.242;6.974;2022-07-04T01:11:16;13.60;99.90
52731;DHT22;38624;53.242;6.974;2022-07-04T01:13:42;13.60;99.90
52731;DHT22;38624;53.242;6.974;2022-07-04T01:16:09;13.60;99.90
52731;DHT22;38624;53.242;6.974;2022-07-04T01:18:35;13.60;99.90
52731;DHT22;38624;53.242;6.974;2022-07-04T01:21:01;13.60;99.90
52731;DHT22;38624;53.242;6.974;2022-07-04T01:23:27;13.50;99.90
52731;DHT22;38624;53.242;6.974;2022-07-04T01:25:53;13.60;99.90
52731;DHT22;38624;53.242;6.974;2022-07-04T01:28:20;13.60;99.90
52731;DHT22;38624;53.242;6.974;2022-07-04T01:30:46;13.50;99.90
52731;DHT22;38624;53.242;6.974;2022-07-04T01:33:12;13.50;99.90
52731;DHT22;38624;53.242;6.974;2022-07-04T01:35:39;13.40;99.90
52731;DHT22;38624;53.242;6.974;2022-07-04T01:38:05;13.40;99.90
52731;DHT22;38624;53.242;6.974;2022-07-04T01:40:30;13.30;99.90
52731;DHT22;38624;53.242;6.974;2022-07-04T01:42:57;13.20;99.90
52731;DHT22;38624;53.242;6.974;2022-07-04T01:45:24;13.20;99.90
52731;DHT22;38624;53.242;6.974;2022-07-04T01:47:50;13.20;99.90
52731;DHT22;38624;53.242;6.974;2022-07-04T01:50:15;13.10;99.90
52731;DHT22;38624;53.242;6.974;2022-07-04T01:52:42;13.10;99.90
52731;DHT22;38624;53.242;6.974;2022-07-04T01:55:10;13.10;99.90
52731;DHT22;38624;53.242;6.974;2022-07-04T01:57:36;13.10;99.90
52731;DHT22;38624;53.242;6.974;2022-07-04T02:00:04;13.10;99.90
52731;DHT22;38624;53.242;6.974;2022-07-04T02:02:49;13.10;99.90
52731;DHT22;38624;53.242;6.974;2022-07-04T02:05:14;13.10;99.90
52731;DHT22;38624;53.242;6.974;2022-07-04T02:07:40;13.10;99.90
52731;DHT22;38624;53.242;6.974;2022-07-04T02:10:06;13.10;99.90
52731;DHT22;38624;53.242;6.974;2022-07-04T02:12:32;13.10;99.90
52731;DHT22;38624;53.242;6.974;2022-07-04T02:15:16;13.10;99.90
52731;DHT22;38624;53.242;6.974;2022-07-04T02:17:42;13.00;99.90
52731;DHT22;38624;53.242;6.974;2022-07-04T02:20:08;13.00;99.90
52731;DHT22;38624;53.242;6.974;2022-07-04T02:22:34;13.00;99.90
52731;DHT22;38624;53.242;6.974;2022-07-04T02:25:00;13.00;99.90
52731;DHT22;38624;53.242;6.974;2022-07-04T02:27:25;13.00;99.90
52731;DHT22;38624;53.242;6.974;2022-07-04T02:29:51;13.00;99.90
52731;DHT22;38624;53.242;6.974;2022-07-04T02:32:17;13.00;99.90
52731;DHT22;38624;53.242;6.974;2022-07-04T02:34:42;13.00;99.90
52731;DHT22;38624;53.242;6.974;2022-07-04T02:37:08;13.10;99.90
52731;DHT22;38624;53.242;6.974;2022-07-04T02:39:35;13.10;99.90
52731;DHT22;38624;53.242;6.974;2022-07-04T02:42:01;13.00;99.90
52731;DHT22;38624;53.242;6.974;2022-07-04T02:44:27;13.00;99.90
52731;DHT22;38624;53.242;6.974;2022-07-04T02:46:52;13.00;99.90
52731;DHT22;38624;53.242;6.974;2022-07-04T02:49:19;13.00;99.90
52731;DHT22;38624;53.242;6.974;2022-07-04T02:51:45;13.00;99.90
52731;DHT22;38624;53.242;6.974;2022-07-04T02:54:10;13.00;99.90
52731;DHT22;38624;53.242;6.974;2022-07-04T02:56:36;12.90;99.90
52731;DHT22;38624;53.242;6.974;2022-07-04T02:59:02;12.90;99.90
52731;DHT22;38624;53.242;6.974;2022-07-04T03:01:27;12.90;99.90
52731;DHT22;38624;53.242;6.974;2022-07-04T03:03:53;12.80;99.90
52731;DHT22;38624;53.242;6.974;2022-07-04T03:06:19;12.80;99.90
52731;DHT22;38624;53.242;6.974;2022-07-04T03:08:45;12.80;99.90
52731;DHT22;38624;53.242;6.974;2022-07-04T03:11:10;12.70;99.90
52731;DHT22;38624;53.242;6.974;2022-07-04T03:13:37;12.70;99.90
52731;DHT22;38624;53.242;6.974;2022-07-04T03:16:04;12.70;99.90
52731;DHT22;38624;53.242;6.974;2022-07-04T03:18:30;12.70;99.90
52731;DHT22;38624;53.242;6.974;2022-07-04T03:20:56;12.60;99.90
52731;DHT22;38624;53.242;6.974;2022-07-04T03:23:21;12.60;99.90
52731;DHT22;38624;53.242;6.974;2022-07-04T03:25:47;12.50;99.90
52731;DHT22;38624;53.242;6.974;2022-07-04T03:28:13;12.60;99.90
52731;DHT22;38624;53.242;6.974;2022-07-04T03:30:39;12.50;99.90
52731;DHT22;38624;53.242;6.974;2022-07-04T03:33:04;12.50;99.90
52731;DHT22;38624;53.242;6.974;2022-07-04T03:35:31;12.50;99.90
52731;DHT22;38624;53.242;6.974;2022-07-04T03:37:57;12.50;99.90
52731;DHT22;38624;53.242;6.974;2022-07-04T03:40:23;12.40;99.90
52731;DHT22;38624;53.242;6.974;2022-07-04T03:42:49;12.40;99.90
52731;DHT22;38624;53.242;6.974;2022-07-04T03:45:15;12.40;99.90
52731;DHT22;38624;53.242;6.974;2022-07-04T03:47:41;12.40;99.90
52731;DHT22;38624;53.242;6.974;2022-07-04T03:50:07;12.40;99.90
52731;DHT22;38624;53.242;6.974;2022-07-04T03:52:33;12.40;99.90
52731;DHT22;38624;53.242;6.974;2022-07-04T03:54:59;12.40;99.90
52731;DHT22;38624;53.242;6.974;2022-07-04T03:57:24;12.40;99.90
52731;DHT22;38624;53.242;6.974;2022-07-04T03:59:50;12.40;99.90
52731;DHT22;38624;53.242;6.974;2022-07-04T04:02:16;12.50;99.90
52731;DHT22;38624;53.242;6.974;2022-07-04T04:04:42;12.50;99.90
52731;DHT22;38624;53.242;6.974;2022-07-04T04:07:26;12.50;99.90
52731;DHT22;38624;53.242;6.974;2022-07-04T04:09:52;12.60;99.90
52731;DHT22;38624;53.242;6.974;2022-07-04T04:12:18;12.60;99.90
52731;DHT22;38624;53.242;6.974;2022-07-04T04:14:44;12.60;99.90
52731;DHT22;38624;53.242;6.974;2022-07-04T04:17:09;12.70;99.90
52731;DHT22;38624;53.242;6.974;2022-07-04T04:19:35;12.70;99.90
52731;DHT22;38624;53.242;6.974;2022-07-04T04:22:01;12.80;99.90
52731;DHT22;38624;53.242;6.974;2022-07-04T04:24:27;12.90;99.90
52731;DHT22;38624;53.242;6.974;2022-07-04T04:26:52;12.90;99.90
52731;DHT22;38624;53.242;6.974;2022-07-04T04:29:18;13.00;99.90
52731;DHT22;38624;53.242;6.974;2022-07-04T04:31:44;13.00;99.90
52731;DHT22;38624;53.242;6.974;2022-07-04T04:34:10;13.10;99.90
52731;DHT22;38624;53.242;6.974;2022-07-04T04:36:36;13.10;99.90
52731;DHT22;38624;53.242;6.974;2022-07-04T04:39:03;13.10;99.90
52731;DHT22;38624;53.242;6.974;2022-07-04T04:41:29;13.20;99.90
52731;DHT22;38624;53.242;6.974;2022-07-04T04:43:54;13.30;99.90
52731;DHT22;38624;53.242;6.974;2022-07-04T04:46:20;13.30;99.90
52731;DHT22;38624;53.242;6.974;2022-07-04T04:48:46;13.40;99.90
52731;DHT22;38624;53.242;6.974;2022-07-04T04:51:12;13.50;99.90
52731;DHT22;38624;53.242;6.974;2022-07-04T04:53:37;13.50;99.90
52731;DHT22;38624;53.242;6.974;2022-07-04T04:56:03;13.60;99.90
52731;DHT22;38624;53.242;6.974;2022-07-04T04:58:29;13.70;99.90
52731;DHT22;38624;53.242;6.974;2022-07-04T05:00:55;13.80;99.90
52731;DHT22;38624;53.242;6.974;2022-07-04T05:03:20;13.90;99.90
52731;DHT22;38624;53.242;6.974;2022-07-04T05:05:46;13.90;99.90
52731;DHT22;38624;53.242;6.974;2022-07-04T05:08:12;14.00;99.90
52731;DHT22;38624;53.242;6.974;2022-07-04T05:10:42;14.10;99.90
52731;DHT22;38624;53.242;6.974;2022-07-04T05:13:07;14.10;99.90
52731;DHT22;38624;53.242;6.974;2022-07-04T05:15:33;14.20;99.90
52731;DHT22;38624;53.242;6.974;2022-07-04T05:17:59;14.20;99.90
52731;DHT22;38624;53.242;6.974;2022-07-04T05:20:25;14.20;99.90
52731;DHT22;38624;53.242;6.974;2022-07-04T05:22:50;14.20;99.90
52731;DHT22;38624;53.242;6.974;2022-07-04T05:25:16;14.30;99.90
52731;DHT22;38624;53.242;6.974;2022-07-04T05:27:42;14.40;99.90
52731;DHT22;38624;53.242;6.974;2022-07-04T05:30:08;14.50;99.90
52731;DHT22;38624;53.242;6.974;2022-07-04T05:32:37;14.60;99.90
52731;DHT22;38624;53.242;6.974;2022-07-04T05:35:03;14.70;99.90
52731;DHT22;38624;53.242;6.974;2022-07-04T05:37:29;14.80;99.90
52731;DHT22;38624;53.242;6.974;2022-07-04T05:39:55;14.90;99.90
52731;DHT22;38624;53.242;6.974;2022-07-04T05:42:20;15.00;99.90
52731;DHT22;38624;53.242;6.974;2022-07-04T05:44:46;15.20;99.90
52731;DHT22;38624;53.242;6.974;2022-07-04T05:47:12;15.30;99.90
52731;DHT22;38624;53.242;6.974;2022-07-04T05:49:37;15.60;99.90
52731;DHT22;38624;53.242;6.974;2022-07-04T05:52:03;15.80;99.90
52731;DHT22;38624;53.242;6.974;2022-07-04T05:54:29;16.20;99.90
52731;DHT22;38624;53.242;6.974;2022-07-04T05:56:54;16.40;99.90
52731;DHT22;38624;53.242;6.974;2022-07-04T05:59:20;16.50;99.90
52731;DHT22;38624;53.242;6.974;2022-07-04T06:01:46;16.60;99.90
52731;DHT22;38624;53.242;6.974;2022-07-04T06:04:12;16.60;99.90
52731;DHT22;38624;53.242;6.974;2022-07-04T06:06:37;16.50;99.90
52731;DHT22;38624;53.242;6.974;2022-07-04T06:09:03;16.50;99.90
52731;DHT22;38624;53.242;6.974;2022-07-04T06:11:29;16.40;99.90
52731;DHT22;38624;53.242;6.974;2022-07-04T06:13:55;16.40;99.90
52731;DHT22;38624;53.242;6.974;2022-07-04T06:16:21;16.40;99.90
52731;DHT22;38624;53.242;6.974;2022-07-04T06:18:47;16.60;99.90
52731;DHT22;38624;53.242;6.974;2022-07-04T06:21:13;16.70;99.90
52731;DHT22;38624;53.242;6.974;2022-07-04T06:23:38;16.80;99.90
52731;DHT22;38624;53.242;6.974;2022-07-04T06:26:04;16.90;99.90
52731;DHT22;38624;53.242;6.974;2022-07-04T06:28:30;17.00;99.90
52731;DHT22;38624;53.242;6.974;2022-07-04T06:30:56;17.10;99.90
52731;DHT22;38624;53.242;6.974;2022-07-04T06:33:22;17.30;99.90
52731;DHT22;38624;53.242;6.974;2022-07-04T06:35:47;17.40;99.90
52731;DHT22;38624;53.242;6.974;2022-07-04T06:38:24;17.40;99.90
52731;DHT22;38624;53.242;6.974;2022-07-04T06:40:55;17.50;99.90
52731;DHT22;38624;53.242;6.974;2022-07-04T06:43:21;17.60;99.90
52731;DHT22;38624;53.242;6.974;2022-07-04T06:45:48;17.60;99.90
52731;DHT22;38624;53.242;6.974;2022-07-04T06:48:13;17.60;99.90
52731;DHT22;38624;53.242;6.974;2022-07-04T06:50:39;17.70;99.90
52731;DHT22;38624;53.242;6.974;2022-07-04T06:53:07;17.80;99.90
52731;DHT22;38624;53.242;6.974;2022-07-04T06:55:33;17.90;99.90
52731;DHT22;38624;53.242;6.974;2022-07-04T06:57:58;17.90;99.90
52731;DHT22;38624;53.242;6.974;2022-07-04T07:00:24;17.90;99.90
52731;DHT22;38624;53.242;6.974;2022-07-04T07:02:50;18.00;99.90
52731;DHT22;38624;53.242;6.974;2022-07-04T07:05:16;18.10;99.90
52731;DHT22;38624;53.242;6.974;2022-07-04T07:07:41;18.20;99.90
52731;DHT22;38624;53.242;6.974;2022-07-04T07:10:07;18.30;99.90
52731;DHT22;38624;53.242;6.974;2022-07-04T07:12:34;18.30;99.90
52731;DHT22;38624;53.242;6.974;2022-07-04T07:15:00;18.40;99.90
52731;DHT22;38624;53.242;6.974;2022-07-04T07:17:27;18.50;99.90
52731;DHT22;38624;53.242;6.974;2022-07-04T07:19:53;18.60;99.90
52731;DHT22;38624;53.242;6.974;2022-07-04T07:22:19;18.60;99.90
52731;DHT22;38624;53.242;6.974;2022-07-04T07:24:45;18.70;99.90
52731;DHT22;38624;53.242;6.974;2022-07-04T07:27:11;18.80;99.90
52731;DHT22;38624;53.242;6.974;2022-07-04T07:29:38;18.70;99.90
52731;DHT22;38624;53.242;6.974;2022-07-04T07:32:05;18.80;99.90
52731;DHT22;38624;53.242;6.974;2022-07-04T07:34:31;18.90;99.90
52731;DHT22;38624;53.242;6.974;2022-07-04T07:36:57;18.90;99.90
52731;DHT22;38624;53.242;6.974;2022-07-04T07:39:22;19.00;99.90
52731;DHT22;38624;53.242;6.974;2022-07-04T07:41:48;19.10;99.90
52731;DHT22;38624;53.242;6.974;2022-07-04T07:44:14;19.20;99.90
52731;DHT22;38624;53.242;6.974;2022-07-04T07:46:40;19.20;99.90
52731;DHT22;38624;53.242;6.974;2022-07-04T07:49:06;19.30;99.90
52731;DHT22;38624;53.242;6.974;2022-07-04T07:51:32;19.50;99.90
52731;DHT22;38624;53.242;6.974;2022-07-04T07:53:58;19.60;99.90
52731;DHT22;38624;53.242;6.974;2022-07-04T07:56:25;19.60;99.90
52731;DHT22;38624;53.242;6.974;2022-07-04T07:58:50;19.50;99.90
52731;DHT22;38624;53.242;6.974;2022-07-04T08:01:16;19.50;99.90
52731;DHT22;38624;53.242;6.974;2022-07-04T08:03:42;19.50;99.90
52731;DHT22;38624;53.242;6.974;2022-07-04T08:06:26;19.50;99.90
52731;DHT22;38624;53.242;6.974;2022-07-04T08:08:52;19.60;99.90
52731;DHT22;38624;53.242;6.974;2022-07-04T08:11:18;19.80;99.90
52731;DHT22;38624;53.242;6.974;2022-07-04T08:13:44;20.00;99.90
52731;DHT22;38624;53.242;6.974;2022-07-04T08:16:10;20.30;99.90
52731;DHT22;38624;53.242;6.974;2022-07-04T08:18:36;20.50;99.90
52731;DHT22;38624;53.242;6.974;2022-07-04T08:21:02;20.70;99.90
52731;DHT22;38624;53.242;6.974;2022-07-04T08:23:30;20.70;99.90
52731;DHT22;38624;53.242;6.974;2022-07-04T08:25:57;20.90;99.90
52731;DHT22;38624;53.242;6.974;2022-07-04T08:28:22;21.30;99.90
52731;DHT22;38624;53.242;6.974;2022-07-04T08:30:48;21.50;99.90
52731;DHT22;38624;53.242;6.974;2022-07-04T08:33:14;21.40;99.90
52731;DHT22;38624;53.242;6.974;2022-07-04T08:35:40;21.50;99.90
52731;DHT22;38624;53.242;6.974;2022-07-04T08:38:05;21.40;99.90
52731;DHT22;38624;53.242;6.974;2022-07-04T08:40:31;21.20;99.90
52731;DHT22;38624;53.242;6.974;2022-07-04T08:42:58;21.00;99.90
52731;DHT22;38624;53.242;6.974;2022-07-04T08:45:31;20.70;99.90
52731;DHT22;38624;53.242;6.974;2022-07-04T08:48:04;20.60;99.90
52731;DHT22;38624;53.242;6.974;2022-07-04T08:50:34;20.40;99.90
52731;DHT22;38624;53.242;6.974;2022-07-04T08:53:02;20.20;99.90
52731;DHT22;38624;53.242;6.974;2022-07-04T08:55:29;20.20;99.90
52731;DHT22;38624;53.242;6.974;2022-07-04T08:58:14;20.20;99.90
52731;DHT22;38624;53.242;6.974;2022-07-04T09:00:56;20.00;99.90
52731;DHT22;38624;53.242;6.974;2022-07-04T09:03:22;20.00;99.90
52731;DHT22;38624;53.242;6.974;2022-07-04T09:05:48;19.80;99.90
52731;DHT22;38624;53.242;6.974;2022-07-04T09:08:15;19.70;99.90
52731;DHT22;38624;53.242;6.974;2022-07-04T09:10:41;19.70;99.90
52731;DHT22;38624;53.242;6.974;2022-07-04T09:13:08;19.50;99.90
52731;DHT22;38624;53.242;6.974;2022-07-04T09:15:34;19.40;99.90
52731;DHT22;38624;53.242;6.974;2022-07-04T09:18:01;19.30;99.90
52731;DHT22;38624;53.242;6.974;2022-07-04T09:20:28;19.30;99.90
52731;DHT22;38624;53.242;6.974;2022-07-04T09:22:54;19.20;99.90
52731;DHT22;38624;53.242;6.974;2022-07-04T09:25:22;19.20;99.90
52731;DHT22;38624;53.242;6.974;2022-07-04T09:27:50;19.20;99.90
52731;DHT22;38624;53.242;6.974;2022-07-04T09:30:19;19.20;99.90
52731;DHT22;38624;53.242;6.974;2022-07-04T09:32:47;19.30;99.90
52731;DHT22;38624;53.242;6.974;2022-07-04T09:35:18;19.30;99.90
52731;DHT22;38624;53.242;6.974;2022-07-04T09:37:52;19.40;99.90
52731;DHT22;38624;53.242;6.974;2022-07-04T09:40:36;19.60;99.90
52731;DHT22;38624;53.242;6.974;2022-07-04T09:43:21;19.80;99.90
52731;DHT22;38624;53.242;6.974;2022-07-04T09:46:13;20.20;99.90
52731;DHT22;38624;53.242;6.974;2022-07-04T09:48:50;20.50;99.90
52731;DHT22;38624;53.242;6.974;2022-07-04T09:54:18;21.10;99.90
52731;DHT22;38624;53.242;6.974;2022-07-04T09:56:53;21.20;99.90
52731;DHT22;38624;53.242;6.974;2022-07-04T09:59:20;21.40;99.90
52731;DHT22;38624;53.242;6.974;2022-07-04T10:01:46;21.60;99.90
52731;DHT22;38624;53.242;6.974;2022-07-04T10:04:13;21.90;99.90
52731;DHT22;38624;53.242;6.974;2022-07-04T10:06:43;21.90;99.90
52731;DHT22;38624;53.242;6.974;2022-07-04T10:09:11;21.70;99.90
52731;DHT22;38624;53.242;6.974;2022-07-04T10:11:38;21.60;99.90
52731;DHT22;38624;53.242;6.974;2022-07-04T10:14:08;21.60;99.90
52731;DHT22;38624;53.242;6.974;2022-07-04T10:16:35;21.50;99.90
52731;DHT22;38624;53.242;6.974;2022-07-04T10:19:01;21.70;99.90
52731;DHT22;38624;53.242;6.974;2022-07-04T10:21:28;21.90;99.90
52731;DHT22;38624;53.242;6.974;2022-07-04T10:23:55;21.80;99.90
52731;DHT22;38624;53.242;6.974;2022-07-04T10:26:21;21.60;99.90
52731;DHT22;38624;53.242;6.974;2022-07-04T10:28:49;21.80;99.90
52731;DHT22;38624;53.242;6.974;2022-07-04T10:31:15;22.20;99.90
52731;DHT22;38624;53.242;6.974;2022-07-04T10:33:42;22.40;99.90
52731;DHT22;38624;53.242;6.974;2022-07-04T10:36:20;22.50;99.90
52731;DHT22;38624;53.242;6.974;2022-07-04T10:38:51;22.50;99.90
52731;DHT22;38624;53.242;6.974;2022-07-04T10:41:19;22.80;99.90
52731;DHT22;38624;53.242;6.974;2022-07-04T10:46:29;22.70;99.90
52731;DHT22;38624;53.242;6.974;2022-07-04T10:49:05;22.80;99.90
52731;DHT22;38624;53.242;6.974;2022-07-04T10:56:55;23.10;97.20
52731;DHT22;38624;53.242;6.974;2022-07-04T11:05:01;23.30;95.80
52731;DHT22;38624;53.242;6.974;2022-07-04T11:17:50;23.10;91.90
52731;DHT22;38624;53.242;6.974;2022-07-04T11:20:18;23.30;91.30
52731;DHT22;38624;53.242;6.974;2022-07-04T11:22:44;23.60;90.30
52731;DHT22;38624;53.242;6.974;2022-07-04T11:25:13;23.40;90.30
52731;DHT22;38624;53.242;6.974;2022-07-04T11:27:39;23.10;90.70
52731;DHT22;38624;53.242;6.974;2022-07-04T11:30:06;23.10;91.40
52731;DHT22;38624;53.242;6.974;2022-07-04T11:32:33;23.50;91.70
52731;DHT22;38624;53.242;6.974;2022-07-04T11:35:00;24.10;92.40
52731;DHT22;38624;53.242;6.974;2022-07-04T11:37:26;24.80;93.00
52731;DHT22;38624;53.242;6.974;2022-07-04T11:39:53;25.10;91.70
52731;DHT22;38624;53.242;6.974;2022-07-04T11:42:39;24.90;90.10
52731;DHT22;38624;53.242;6.974;2022-07-04T11:45:23;24.50;90.10
52731;DHT22;38624;53.242;6.974;2022-07-04T11:47:49;24.60;89.90
52731;DHT22;38624;53.242;6.974;2022-07-04T11:50:16;25.10;86.60
52731;DHT22;38624;53.242;6.974;2022-07-04T11:52:46;25.30;87.10
52731;DHT22;38624;53.242;6.974;2022-07-04T11:55:16;25.90;81.40
52731;DHT22;38624;53.242;6.974;2022-07-04T11:57:44;26.00;82.70
52731;DHT22;38624;53.242;6.974;2022-07-04T12:00:11;26.30;83.70
52731;DHT22;38624;53.242;6.974;2022-07-04T12:02:37;26.60;84.20
52731;DHT22;38624;53.242;6.974;2022-07-04T12:05:06;27.10;79.70
52731;DHT22;38624;53.242;6.974;2022-07-04T12:07:34;27.40;78.40
52731;DHT22;38624;53.242;6.974;2022-07-04T12:15:25;27.50;74.00
52731;DHT22;38624;53.242;6.974;2022-07-04T12:17:53;27.90;70.60
52731;DHT22;38624;53.242;6.974;2022-07-04T12:20:23;28.20;69.40
52731;DHT22;38624;53.242;6.974;2022-07-04T12:22:57;28.20;71.00
52731;DHT22;38624;53.242;6.974;2022-07-04T12:25:24;28.20;68.80
52731;DHT22;38624;53.242;6.974;2022-07-04T12:27:55;27.90;67.40
52731;DHT22;38624;53.242;6.974;2022-07-04T12:30:21;27.60;67.70
52731;DHT22;38624;53.242;6.974;2022-07-04T12:32:50;27.80;67.90
52731;DHT22;38624;53.242;6.974;2022-07-04T12:38:13;28.40;63.70
52731;DHT22;38624;53.242;6.974;2022-07-04T12:48:51;28.10;63.80
52731;DHT22;38624;53.242;6.974;2022-07-04T12:51:20;28.20;63.90
52731;DHT22;38624;53.242;6.974;2022-07-04T12:53:48;28.60;62.20
52731;DHT22;38624;53.242;6.974;2022-07-04T12:56:46;28.50;62.70
52731;DHT22;38624;53.242;6.974;2022-07-04T12:59:14;28.20;61.50
52731;DHT22;38624;53.242;6.974;2022-07-04T13:01:42;28.50;62.60
52731;DHT22;38624;53.242;6.974;2022-07-04T13:04:08;28.80;63.20
52731;DHT22;38624;53.242;6.974;2022-07-04T13:06:34;29.00;63.40
52731;DHT22;38624;53.242;6.974;2022-07-04T13:09:00;29.40;61.60
52731;DHT22;38624;53.242;6.974;2022-07-04T13:11:26;29.60;60.70
52731;DHT22;38624;53.242;6.974;2022-07-04T13:14:10;29.90;61.10
52731;DHT22;38624;53.242;6.974;2022-07-04T13:16:36;30.50;57.90
52731;DHT22;38624;53.242;6.974;2022-07-04T13:19:02;30.30;58.10
52731;DHT22;38624;53.242;6.974;2022-07-04T13:21:28;30.70;56.90
52731;DHT22;38624;53.242;6.974;2022-07-04T13:23:54;30.90;57.30
52731;DHT22;38624;53.242;6.974;2022-07-04T13:26:19;31.30;55.40
52731;DHT22;38624;53.242;6.974;2022-07-04T13:28:45;31.50;54.10
52731;DHT22;38624;53.242;6.974;2022-07-04T13:31:11;31.10;56.90
52731;DHT22;38624;53.242;6.974;2022-07-04T13:33:37;31.50;56.50
52731;DHT22;38624;53.242;6.974;2022-07-04T13:36:03;31.90;56.80
52731;DHT22;38624;53.242;6.974;2022-07-04T13:38:29;31.70;56.80
52731;DHT22;38624;53.242;6.974;2022-07-04T13:40:54;30.90;55.10
52731;DHT22;38624;53.242;6.974;2022-07-04T13:43:26;30.80;54.50
52731;DHT22;38624;53.242;6.974;2022-07-04T13:45:55;31.20;55.40
52731;DHT22;38624;53.242;6.974;2022-07-04T13:48:22;30.70;55.30
52731;DHT22;38624;53.242;6.974;2022-07-04T13:50:47;30.90;55.10
52731;DHT22;38624;53.242;6.974;2022-07-04T13:53:13;31.50;56.70
52731;DHT22;38624;53.242;6.974;2022-07-04T13:55:39;30.60;55.40
52731;DHT22;38624;53.242;6.974;2022-07-04T13:58:06;31.00;53.70
52731;DHT22;38624;53.242;6.974;2022-07-04T14:00:34;31.80;53.30
52731;DHT22;38624;53.242;6.974;2022-07-04T14:03:00;32.60;53.40
52731;DHT22;38624;53.242;6.974;2022-07-04T14:05:26;33.00;52.60
52731;DHT22;38624;53.242;6.974;2022-07-04T14:07:52;32.90;52.30
52731;DHT22;38624;53.242;6.974;2022-07-04T14:10:17;32.60;51.90
52731;DHT22;38624;53.242;6.974;2022-07-04T14:12:43;33.00;54.90
52731;DHT22;38624;53.242;6.974;2022-07-04T14:15:09;33.60;53.80
52731;DHT22;38624;53.242;6.974;2022-07-04T14:17:36;33.80;49.90
52731;DHT22;38624;53.242;6.974;2022-07-04T14:20:06;34.00;49.10
52731;DHT22;38624;53.242;6.974;2022-07-04T14:22:33;34.20;49.50
52731;DHT22;38624;53.242;6.974;2022-07-04T14:24:59;34.30;48.50
52731;DHT22;38624;53.242;6.974;2022-07-04T14:27:25;33.50;49.30
52731;DHT22;38624;53.242;6.974;2022-07-04T14:29:51;32.60;48.90
52731;DHT22;38624;53.242;6.974;2022-07-04T14:32:17;31.40;49.30
52731;DHT22;38624;53.242;6.974;2022-07-04T14:34:42;32.30;49.70
52731;DHT22;38624;53.242;6.974;2022-07-04T14:37:08;33.00;50.80
52731;DHT22;38624;53.242;6.974;2022-07-04T14:39:34;32.00;50.60
52731;DHT22;38624;53.242;6.974;2022-07-04T14:41:59;31.70;49.10
52731;DHT22;38624;53.242;6.974;2022-07-04T14:44:25;30.80;50.20
52731;DHT22;38624;53.242;6.974;2022-07-04T14:46:51;30.30;51.70
52731;DHT22;38624;53.242;6.974;2022-07-04T14:49:17;31.80;52.00
52731;DHT22;38624;53.242;6.974;2022-07-04T14:51:42;31.60;52.70
52731;DHT22;38624;53.242;6.974;2022-07-04T14:54:09;33.00;50.30
52731;DHT22;38624;53.242;6.974;2022-07-04T14:56:36;33.10;49.40
52731;DHT22;38624;53.242;6.974;2022-07-04T14:59:03;33.90;49.60
52731;DHT22;38624;53.242;6.974;2022-07-04T15:01:29;34.50;49.30
52731;DHT22;38624;53.242;6.974;2022-07-04T15:03:54;34.60;47.90
52731;DHT22;38624;53.242;6.974;2022-07-04T15:06:20;33.90;48.70
52731;DHT22;38624;53.242;6.974;2022-07-04T15:08:46;32.50;49.50
52731;DHT22;38624;53.242;6.974;2022-07-04T15:11:12;31.50;50.00
52731;DHT22;38624;53.242;6.974;2022-07-04T15:13:38;32.60;50.40
52731;DHT22;38624;53.242;6.974;2022-07-04T15:16:04;33.50;49.40
52731;DHT22;38624;53.242;6.974;2022-07-04T15:18:29;33.40;47.70
52731;DHT22;38624;53.242;6.974;2022-07-04T15:20:55;33.90;49.00
52731;DHT22;38624;53.242;6.974;2022-07-04T15:23:40;33.90;48.30
52731;DHT22;38624;53.242;6.974;2022-07-04T15:26:24;33.30;47.40
52731;DHT22;38624;53.242;6.974;2022-07-04T15:28:49;33.00;48.30
52731;DHT22;38624;53.242;6.974;2022-07-04T15:31:15;33.80;47.80
52731;DHT22;38624;53.242;6.974;2022-07-04T15:33:41;34.20;46.50
52731;DHT22;38624;53.242;6.974;2022-07-04T15:36:07;34.60;46.20
52731;DHT22;38624;53.242;6.974;2022-07-04T15:38:33;34.90;46.40
52731;DHT22;38624;53.242;6.974;2022-07-04T15:40:59;35.40;47.00
52731;DHT22;38624;53.242;6.974;2022-07-04T15:43:29;35.70;45.70
52731;DHT22;38624;53.242;6.974;2022-07-04T15:45:55;36.30;46.20
52731;DHT22;38624;53.242;6.974;2022-07-04T15:48:21;34.70;45.80
52731;DHT22;38624;53.242;6.974;2022-07-04T15:50:47;34.00;47.10
52731;DHT22;38624;53.242;6.974;2022-07-04T15:53:13;32.90;47.30
52731;DHT22;38624;53.242;6.974;2022-07-04T15:55:38;33.80;46.60
52731;DHT22;38624;53.242;6.974;2022-07-04T15:58:04;33.80;46.80
52731;DHT22;38624;53.242;6.974;2022-07-04T16:00:30;34.10;46.90
52731;DHT22;38624;53.242;6.974;2022-07-04T16:02:56;34.80;46.40
52731;DHT22;38624;53.242;6.974;2022-07-04T16:05:22;35.60;46.20
52731;DHT22;38624;53.242;6.974;2022-07-04T16:07:48;35.60;46.00
52731;DHT22;38624;53.242;6.974;2022-07-04T16:10:13;33.60;45.90
52731;DHT22;38624;53.242;6.974;2022-07-04T16:12:39;34.00;47.10